createdAt,value
2017-10-12T00:00:18.554Z,1.6
2017-10-12T00:01:20.940Z,1.6
2017-10-12T00:02:23.312Z,1.6
2017-10-12T00:03:25.692Z,1.6
2017-10-12T00:04:28.434Z,1.6
2017-10-12T00:05:30.806Z,1.6
2017-10-12T00:06:33.182Z,1.5
2017-10-12T00:07:35.907Z,1.6
2017-10-12T00:08:38.278Z,1.5
2017-10-12T00:09:40.649Z,1.6
2017-10-12T00:10:43.032Z,1.6
2017-10-12T00:11:45.410Z,1.5
2017-10-12T00:12:47.794Z,1.6
2017-10-12T00:13:50.174Z,1.6
2017-10-12T00:14:52.559Z,1.5
2017-10-12T00:15:54.938Z,1.5
2017-10-12T00:16:57.327Z,1.6
2017-10-12T00:17:59.701Z,1.6
2017-10-12T00:19:02.076Z,1.6
2017-10-12T00:20:04.455Z,1.5
2017-10-12T00:21:06.833Z,1.5
2017-10-12T00:22:09.212Z,1.5
2017-10-12T00:23:11.592Z,1.6
2017-10-12T00:24:13.969Z,1.5
2017-10-12T00:25:16.350Z,1.6
2017-10-12T00:26:19.088Z,1.6
2017-10-12T00:27:21.472Z,1.4
2017-10-12T00:28:24.189Z,1.6
2017-10-12T00:29:26.573Z,1.6
2017-10-12T00:30:28.958Z,1.6
2017-10-12T00:31:31.334Z,1.6
2017-10-12T00:32:33.713Z,1.6
2017-10-12T00:33:36.091Z,1.6
2017-10-12T00:34:38.463Z,1.5
2017-10-12T00:35:40.846Z,1.5
2017-10-12T00:36:43.222Z,1.5
2017-10-12T00:37:45.945Z,1.5
2017-10-12T00:38:48.327Z,1.5
2017-10-12T00:39:50.710Z,1.5
2017-10-12T00:40:53.082Z,1.6
2017-10-12T00:41:55.462Z,1.5
2017-10-12T00:42:57.853Z,1.5
2017-10-12T00:44:00.600Z,1.6
2017-10-12T00:45:02.982Z,1.5
2017-10-12T00:46:05.360Z,1.6
2017-10-12T00:47:07.737Z,1.5
2017-10-12T00:48:10.118Z,1.5
2017-10-12T00:49:12.847Z,1.5
2017-10-12T00:50:15.218Z,1.6
2017-10-12T00:51:17.592Z,1.5
2017-10-12T00:52:20.329Z,1.4
2017-10-12T00:53:22.702Z,1.6
2017-10-12T00:54:25.082Z,1.5
2017-10-12T00:55:27.465Z,1.6
2017-10-12T00:56:29.850Z,1.6
2017-10-12T00:57:32.226Z,1.5
2017-10-12T00:58:34.610Z,1.5
2017-10-12T00:59:36.982Z,1.5
2017-10-12T01:00:39.360Z,1.5
2017-10-12T01:01:41.741Z,1.5
2017-10-12T01:02:44.108Z,1.6
2017-10-12T01:03:46.487Z,1.5
2017-10-12T01:04:48.862Z,1.6
2017-10-12T01:05:51.598Z,1.5
2017-10-12T01:06:54.324Z,1.5
2017-10-12T01:07:56.710Z,1.5
2017-10-12T01:08:59.088Z,1.4
2017-10-12T01:10:01.472Z,1.5
2017-10-12T01:11:03.846Z,1.6
2017-10-12T01:12:06.238Z,1.5
2017-10-12T01:13:08.630Z,1.6
2017-10-12T01:14:10.990Z,1.5
2017-10-12T01:15:13.366Z,1.4
2017-10-12T01:16:15.742Z,1.4
2017-10-12T01:17:18.482Z,1.5
2017-10-12T01:18:20.856Z,1.5
2017-10-12T01:19:23.232Z,1.4
2017-10-12T01:20:25.614Z,1.4
2017-10-12T01:21:27.994Z,1.6
2017-10-12T01:22:30.379Z,1.5
2017-10-12T01:23:32.745Z,1.5
2017-10-12T01:24:35.131Z,1.5
2017-10-12T01:25:37.515Z,1.5
2017-10-12T01:26:39.892Z,1.6
2017-10-12T01:27:42.271Z,1.5
2017-10-12T01:28:44.658Z,1.6
2017-10-12T01:29:47.024Z,1.5
2017-10-12T01:30:49.406Z,1.4
2017-10-12T01:31:51.777Z,1.5
2017-10-12T01:32:54.161Z,1.5
2017-10-12T01:33:56.534Z,1.5
2017-10-12T01:34:58.916Z,1.5
2017-10-12T01:36:01.296Z,1.5
2017-10-12T01:37:04.026Z,1.5
2017-10-12T01:38:06.409Z,1.6
2017-10-12T01:39:08.789Z,1.4
2017-10-12T01:40:11.157Z,1.5
2017-10-12T01:41:13.532Z,1.6
2017-10-12T01:42:15.915Z,1.6
2017-10-12T01:43:18.292Z,1.5
2017-10-12T01:44:20.663Z,1.5
2017-10-12T01:45:23.048Z,1.6
2017-10-12T01:46:25.432Z,1.5
2017-10-12T01:47:27.810Z,1.6
2017-10-12T01:48:30.193Z,1.5
2017-10-12T01:49:32.564Z,1.5
2017-10-12T01:50:34.939Z,1.6
2017-10-12T01:51:37.680Z,1.5
2017-10-12T01:52:40.050Z,1.6
2017-10-12T01:53:42.427Z,1.5
2017-10-12T01:54:45.150Z,1.4
2017-10-12T01:55:47.521Z,1.6
2017-10-12T01:56:49.910Z,1.4
2017-10-12T01:57:52.290Z,1.6
2017-10-12T01:58:54.654Z,1.5
2017-10-12T01:59:57.036Z,1.5
2017-10-12T02:00:59.417Z,1.6
2017-10-12T02:02:01.796Z,1.5
2017-10-12T02:03:04.185Z,1.5
2017-10-12T02:04:06.904Z,1.4
2017-10-12T02:05:09.284Z,1.5
2017-10-12T02:06:12.028Z,1.4
2017-10-12T02:07:14.405Z,1.4
2017-10-12T02:08:16.780Z,1.6
2017-10-12T02:09:19.499Z,1.6
2017-10-12T02:10:21.882Z,1.5
2017-10-12T02:11:24.254Z,1.6
2017-10-12T02:12:26.641Z,1.6
2017-10-12T02:13:29.017Z,1.5
2017-10-12T02:14:31.390Z,1.5
2017-10-12T02:15:33.778Z,1.4
2017-10-12T02:16:36.157Z,1.6
2017-10-12T02:17:38.527Z,1.6
2017-10-12T02:18:40.910Z,1.5
2017-10-12T02:19:43.284Z,1.6
2017-10-12T02:20:45.665Z,1.6
2017-10-12T02:21:48.049Z,1.6
2017-10-12T02:22:50.418Z,1.5
2017-10-12T02:23:52.801Z,1.6
2017-10-12T02:24:55.535Z,1.6
2017-10-12T02:25:57.904Z,1.5
2017-10-12T02:27:00.293Z,1.5
2017-10-12T02:28:02.655Z,1.5
2017-10-12T02:29:05.027Z,1.5
2017-10-12T02:30:07.411Z,1.5
2017-10-12T02:31:09.787Z,1.6
2017-10-12T02:32:12.162Z,1.5
2017-10-12T02:33:14.545Z,1.4
2017-10-12T02:34:16.928Z,1.6
2017-10-12T02:35:19.308Z,1.6
2017-10-12T02:36:21.675Z,1.6
2017-10-12T02:37:24.056Z,1.6
2017-10-12T02:38:26.427Z,1.6
2017-10-12T02:39:28.803Z,1.6
2017-10-12T02:40:31.200Z,1.5
2017-10-12T02:41:34.304Z,1.5
2017-10-12T02:42:36.688Z,1.6
2017-10-12T02:43:39.077Z,1.5
2017-10-12T02:44:41.446Z,1.4
2017-10-12T02:45:43.824Z,1.6
2017-10-12T02:46:46.562Z,1.5
2017-10-12T02:47:48.933Z,1.5
2017-10-12T02:48:51.306Z,1.6
2017-10-12T02:49:53.677Z,1.6
2017-10-12T02:50:56.066Z,1.5
2017-10-12T02:51:58.444Z,1.5
2017-10-12T02:53:00.816Z,1.5
2017-10-12T02:54:03.543Z,1.4
2017-10-12T02:55:06.274Z,1.6
2017-10-12T02:56:08.646Z,1.4
2017-10-12T02:57:11.023Z,1.5
2017-10-12T02:58:13.387Z,1.6
2017-10-12T02:59:15.778Z,1.6
2017-10-12T03:00:18.527Z,1.6
2017-10-12T03:01:20.910Z,1.5
2017-10-12T03:02:24.042Z,1.6
2017-10-12T03:03:26.421Z,1.5
2017-10-12T03:04:28.794Z,1.4
2017-10-12T03:05:31.179Z,1.5
2017-10-12T03:06:33.556Z,1.4
2017-10-12T03:07:35.933Z,1.5
2017-10-12T03:08:38.309Z,1.5
2017-10-12T03:09:41.034Z,1.5
2017-10-12T03:10:43.409Z,1.5
2017-10-12T03:11:45.792Z,1.5
2017-10-12T03:12:48.165Z,1.5
2017-10-12T03:13:50.895Z,1.4
2017-10-12T03:14:53.271Z,1.6
2017-10-12T03:15:55.644Z,1.6
2017-10-12T03:16:58.033Z,1.4
2017-10-12T03:18:00.411Z,1.4
2017-10-12T03:19:02.785Z,1.5
2017-10-12T03:20:05.168Z,1.5
2017-10-12T03:21:07.549Z,1.6
2017-10-12T03:22:09.919Z,1.6
2017-10-12T03:23:12.301Z,1.6
2017-10-12T03:24:14.668Z,1.5
2017-10-12T03:25:17.398Z,1.6
2017-10-12T03:26:20.131Z,1.6
2017-10-12T03:27:22.504Z,1.5
2017-10-12T03:28:24.887Z,1.5
2017-10-12T03:29:27.264Z,1.5
2017-10-12T03:30:29.649Z,1.5
2017-10-12T03:31:32.023Z,1.4
2017-10-12T03:32:34.396Z,1.5
2017-10-12T03:33:36.772Z,1.6
2017-10-12T03:34:39.154Z,1.5
2017-10-12T03:35:41.901Z,1.4
2017-10-12T03:36:44.278Z,1.5
2017-10-12T03:37:46.656Z,1.6
2017-10-12T03:38:49.039Z,1.6
2017-10-12T03:39:51.419Z,1.6
2017-10-12T03:40:53.787Z,1.5
2017-10-12T03:41:56.168Z,1.5
2017-10-12T03:42:58.549Z,1.4
2017-10-12T03:44:01.278Z,1.5
2017-10-12T03:45:03.651Z,1.5
2017-10-12T03:46:06.026Z,1.4
2017-10-12T03:47:08.404Z,1.4
2017-10-12T03:48:11.144Z,1.6
2017-10-12T03:49:13.522Z,1.6
2017-10-12T03:50:15.897Z,1.6
2017-10-12T03:51:18.628Z,1.5
2017-10-12T03:52:21.011Z,1.6
2017-10-12T03:53:23.387Z,1.4
2017-10-12T03:54:25.769Z,1.4
2017-10-12T03:55:28.140Z,1.6
2017-10-12T03:56:30.872Z,1.5
2017-10-12T03:57:33.598Z,1.5
2017-10-12T03:58:35.974Z,1.4
2017-10-12T03:59:38.695Z,1.5
2017-10-12T04:00:41.436Z,1.5
2017-10-12T04:01:44.161Z,1.5
2017-10-12T04:02:46.551Z,1.5
2017-10-12T04:03:48.925Z,1.5
2017-10-12T04:04:51.297Z,1.5
2017-10-12T04:05:53.680Z,1.5
2017-10-12T04:06:56.063Z,1.6
2017-10-12T04:07:58.439Z,1.5
2017-10-12T04:09:00.817Z,1.5
2017-10-12T04:10:03.196Z,1.4
2017-10-12T04:11:05.579Z,1.5
2017-10-12T04:12:07.940Z,1.5
2017-10-12T04:13:10.332Z,1.5
2017-10-12T04:14:12.708Z,1.6
2017-10-12T04:15:15.088Z,1.5
2017-10-12T04:16:17.471Z,1.5
2017-10-12T04:17:19.850Z,1.6
2017-10-12T04:18:22.233Z,1.5
2017-10-12T04:19:24.621Z,1.4
2017-10-12T04:20:26.988Z,1.5
2017-10-12T04:21:29.371Z,1.5
2017-10-12T04:22:31.760Z,1.6
2017-10-12T04:23:34.513Z,1.6
2017-10-12T04:24:36.896Z,1.5
2017-10-12T04:25:39.278Z,1.5
2017-10-12T04:26:41.652Z,1.5
2017-10-12T04:27:44.040Z,1.4
2017-10-12T04:28:46.406Z,1.5
2017-10-12T04:29:48.790Z,1.5
2017-10-12T04:30:51.168Z,1.5
2017-10-12T04:31:53.549Z,1.6
2017-10-12T04:32:56.274Z,1.4
2017-10-12T04:33:58.660Z,1.6
2017-10-12T04:35:01.390Z,1.5
2017-10-12T04:36:03.761Z,1.4
2017-10-12T04:37:06.135Z,1.4
2017-10-12T04:38:08.520Z,1.5
2017-10-12T04:39:10.892Z,1.5
2017-10-12T04:40:13.264Z,1.5
2017-10-12T04:41:15.996Z,1.5
2017-10-12T04:42:18.376Z,1.5
2017-10-12T04:43:20.759Z,1.5
2017-10-12T04:44:23.138Z,1.5
2017-10-12T04:45:25.513Z,1.5
2017-10-12T04:46:27.883Z,1.5
2017-10-12T04:47:30.265Z,1.6
2017-10-12T04:48:32.635Z,1.5
2017-10-12T04:49:35.012Z,1.5
2017-10-12T04:50:37.383Z,1.5
2017-10-12T04:51:39.756Z,1.6
2017-10-12T04:52:42.147Z,1.5
2017-10-12T04:53:44.881Z,1.4
2017-10-12T04:54:47.259Z,1.4
2017-10-12T04:55:49.637Z,1.5
2017-10-12T04:56:52.018Z,1.5
2017-10-12T04:57:54.393Z,1.5
2017-10-12T04:58:56.777Z,1.6
2017-10-12T04:59:59.151Z,1.5
2017-10-12T05:01:01.889Z,1.5
2017-10-12T05:02:04.641Z,1.5
2017-10-12T05:03:07.015Z,1.4
2017-10-12T05:04:09.745Z,1.5
2017-10-12T05:05:12.116Z,1.5
2017-10-12T05:06:14.848Z,1.5
2017-10-12T05:07:17.225Z,1.5
2017-10-12T05:08:19.606Z,1.5
2017-10-12T05:09:21.985Z,1.4
2017-10-12T05:10:24.414Z,1.5
2017-10-12T05:11:26.779Z,1.5
2017-10-12T05:12:29.160Z,1.5
2017-10-12T05:13:31.900Z,1.5
2017-10-12T05:14:34.629Z,1.5
2017-10-12T05:15:37.003Z,1.4
2017-10-12T05:16:39.383Z,1.5
2017-10-12T05:17:41.759Z,1.5
2017-10-12T05:18:44.145Z,1.5
2017-10-12T05:19:46.863Z,1.5
2017-10-12T05:20:49.242Z,1.4
2017-10-12T05:21:51.619Z,1.4
2017-10-12T05:22:54.005Z,1.5
2017-10-12T05:23:56.740Z,1.5
2017-10-12T05:24:59.121Z,1.4
2017-10-12T05:26:01.489Z,1.4
2017-10-12T05:27:03.873Z,1.4
2017-10-12T05:28:06.599Z,1.5
2017-10-12T05:29:08.969Z,1.4
2017-10-12T05:30:11.691Z,1.5
2017-10-12T05:31:14.417Z,1.5
2017-10-12T05:32:17.159Z,1.5
2017-10-12T05:33:19.889Z,1.4
2017-10-12T05:34:22.265Z,1.4
2017-10-12T05:35:24.639Z,1.5
2017-10-12T05:36:27.018Z,1.6
2017-10-12T05:37:29.397Z,1.4
2017-10-12T05:38:31.776Z,1.4
2017-10-12T05:39:34.149Z,1.5
2017-10-12T05:40:36.524Z,1.5
2017-10-12T05:41:38.898Z,1.4
2017-10-12T05:42:41.283Z,1.5
2017-10-12T05:43:43.666Z,1.5
2017-10-12T05:44:46.045Z,1.4
2017-10-12T05:45:48.420Z,1.5
2017-10-12T05:46:50.804Z,1.4
2017-10-12T05:47:53.181Z,1.5
2017-10-12T05:48:55.924Z,1.4
2017-10-12T05:49:58.646Z,1.4
2017-10-12T05:51:01.028Z,1.5
2017-10-12T05:52:03.409Z,1.4
2017-10-12T05:53:05.785Z,1.4
2017-10-12T05:54:08.166Z,1.4
2017-10-12T05:55:10.541Z,1.5
2017-10-12T05:56:13.258Z,1.5
2017-10-12T05:57:15.998Z,1.5
2017-10-12T05:58:18.369Z,1.4
2017-10-12T05:59:20.747Z,1.5
2017-10-12T06:00:23.118Z,1.5
2017-10-12T06:01:25.500Z,1.5
2017-10-12T06:02:28.227Z,1.4
2017-10-12T06:03:30.603Z,1.4
2017-10-12T06:04:32.987Z,1.4
2017-10-12T06:05:35.366Z,1.4
2017-10-12T06:06:37.737Z,1.4
2017-10-12T06:07:40.116Z,1.5
2017-10-12T06:08:42.493Z,1.4
2017-10-12T06:09:44.877Z,1.5
2017-10-12T06:10:47.259Z,1.5
2017-10-12T06:11:49.633Z,1.5
2017-10-12T06:12:52.009Z,1.5
2017-10-12T06:13:54.384Z,1.5
2017-10-12T06:14:56.771Z,1.5
2017-10-12T06:15:59.149Z,1.5
2017-10-12T06:17:01.524Z,1.5
2017-10-12T06:18:04.258Z,1.5
2017-10-12T06:19:06.637Z,1.5
2017-10-12T06:20:09.368Z,1.5
2017-10-12T06:21:11.744Z,1.4
2017-10-12T06:22:14.123Z,1.5
2017-10-12T06:23:16.505Z,1.5
2017-10-12T06:24:18.888Z,1.5
2017-10-12T06:25:21.257Z,1.5
2017-10-12T06:26:23.633Z,1.5
2017-10-12T06:27:26.007Z,1.4
2017-10-12T06:28:28.384Z,1.5
2017-10-12T06:29:30.769Z,1.5
2017-10-12T06:30:33.148Z,1.4
2017-10-12T06:31:35.537Z,1.4
2017-10-12T06:32:37.909Z,1.4
2017-10-12T06:33:40.288Z,1.5
2017-10-12T06:34:42.656Z,1.5
2017-10-12T06:35:45.031Z,1.5
2017-10-12T06:36:47.416Z,1.6
2017-10-12T06:37:49.786Z,1.5
2017-10-12T06:38:52.159Z,1.4
2017-10-12T06:39:54.536Z,1.4
2017-10-12T06:40:56.908Z,1.5
2017-10-12T06:41:59.300Z,1.5
2017-10-12T06:43:02.034Z,1.5
2017-10-12T06:44:04.403Z,1.5
2017-10-12T06:45:07.145Z,1.4
2017-10-12T06:46:09.524Z,1.5
2017-10-12T06:47:11.900Z,1.5
2017-10-12T06:48:14.285Z,1.5
2017-10-12T06:49:16.652Z,1.5
2017-10-12T06:50:19.034Z,1.5
2017-10-12T06:51:21.416Z,1.5
2017-10-12T06:52:23.788Z,1.5
2017-10-12T06:53:26.165Z,1.5
2017-10-12T06:54:28.538Z,1.5
2017-10-12T06:55:30.914Z,1.4
2017-10-12T06:56:33.296Z,1.5
2017-10-12T06:57:35.676Z,1.5
2017-10-12T06:58:38.044Z,1.5
2017-10-12T06:59:40.425Z,1.5
2017-10-12T07:00:42.812Z,1.5
2017-10-12T07:01:45.191Z,1.5
2017-10-12T07:02:47.564Z,1.5
2017-10-12T07:03:49.941Z,1.6
2017-10-12T07:04:52.313Z,1.5
2017-10-12T07:05:55.044Z,1.5
2017-10-12T07:06:57.425Z,1.5
2017-10-12T07:07:59.796Z,1.5
2017-10-12T07:09:02.181Z,1.5
2017-10-12T07:10:04.565Z,1.6
2017-10-12T07:11:06.940Z,1.5
2017-10-12T07:12:09.319Z,1.5
2017-10-12T07:13:11.696Z,1.5
2017-10-12T07:14:14.069Z,1.5
2017-10-12T07:15:16.455Z,1.5
2017-10-12T07:16:18.839Z,1.6
2017-10-12T07:17:21.207Z,1.5
2017-10-12T07:18:23.587Z,1.5
2017-10-12T07:19:25.962Z,1.6
2017-10-12T07:20:28.712Z,1.5
2017-10-12T07:21:31.091Z,1.5
2017-10-12T07:22:33.460Z,1.5
2017-10-12T07:23:36.188Z,1.5
2017-10-12T07:24:38.571Z,1.6
2017-10-12T07:25:41.302Z,1.6
2017-10-12T07:26:44.384Z,1.5
2017-10-12T07:27:46.769Z,1.5
2017-10-12T07:28:49.145Z,1.5
2017-10-12T07:29:51.534Z,1.6
2017-10-12T07:30:53.913Z,1.6
2017-10-12T07:31:56.281Z,1.6
2017-10-12T07:32:59.018Z,1.6
2017-10-12T07:34:01.407Z,1.5
2017-10-12T07:35:03.794Z,1.6
2017-10-12T07:36:06.179Z,1.6
2017-10-12T07:37:08.558Z,1.5
2017-10-12T07:38:10.942Z,1.6
2017-10-12T07:39:13.315Z,1.6
2017-10-12T07:40:15.694Z,1.5
2017-10-12T07:41:18.078Z,1.6
2017-10-12T07:42:20.447Z,1.6
2017-10-12T07:43:22.829Z,1.6
2017-10-12T07:44:25.212Z,1.6
2017-10-12T07:45:27.584Z,1.5
2017-10-12T07:46:29.969Z,1.6
2017-10-12T07:47:32.355Z,1.5
2017-10-12T07:48:34.729Z,1.6
2017-10-12T07:49:37.106Z,1.7
2017-10-12T07:50:39.482Z,1.6
2017-10-12T07:51:41.863Z,1.6
2017-10-12T07:52:44.254Z,1.7
2017-10-12T07:53:46.631Z,1.7
2017-10-12T07:54:49.018Z,1.7
2017-10-12T07:55:51.429Z,1.7
2017-10-12T07:56:53.787Z,1.7
2017-10-12T07:57:56.173Z,1.6
2017-10-12T07:58:58.549Z,1.7
2017-10-12T08:00:00.931Z,1.7
2017-10-12T08:01:03.671Z,1.7
2017-10-12T08:02:06.054Z,1.7
2017-10-12T08:03:08.434Z,1.7
2017-10-12T08:04:11.155Z,1.6
2017-10-12T08:05:13.546Z,1.7
2017-10-12T08:06:15.931Z,1.7
2017-10-12T08:07:18.649Z,1.7
2017-10-12T08:08:21.037Z,1.7
2017-10-12T08:09:23.777Z,1.7
2017-10-12T08:10:26.161Z,1.7
2017-10-12T08:11:28.905Z,1.7
2017-10-12T08:12:31.280Z,1.7
2017-10-12T08:13:33.660Z,1.7
2017-10-12T08:14:36.401Z,1.7
2017-10-12T08:15:38.782Z,1.7
2017-10-12T08:16:41.163Z,1.7
2017-10-12T08:17:43.899Z,1.7
2017-10-12T08:18:46.282Z,1.7
2017-10-12T08:19:48.669Z,1.7
2017-10-12T08:20:51.049Z,1.7
2017-10-12T08:21:53.430Z,1.7
2017-10-12T08:22:55.808Z,1.7
2017-10-12T08:23:58.188Z,1.7
2017-10-12T08:25:00.570Z,1.7
2017-10-12T08:26:02.948Z,1.8
2017-10-12T08:27:05.325Z,1.7
2017-10-12T08:28:07.698Z,1.7
2017-10-12T08:29:10.094Z,1.7
2017-10-12T08:30:12.476Z,1.7
2017-10-12T08:31:14.858Z,1.6
2017-10-12T08:32:17.589Z,1.7
2017-10-12T08:33:19.982Z,1.7
2017-10-12T08:34:22.357Z,1.6
2017-10-12T08:35:24.739Z,1.7
2017-10-12T08:36:27.119Z,1.7
2017-10-12T08:37:29.504Z,1.7
2017-10-12T08:38:31.883Z,1.7
2017-10-12T08:39:34.271Z,1.7
2017-10-12T08:40:36.646Z,1.7
2017-10-12T08:41:39.030Z,1.6
2017-10-12T08:42:41.418Z,1.7
2017-10-12T08:43:43.795Z,1.7
2017-10-12T08:44:46.177Z,1.6
2017-10-12T08:45:48.564Z,1.6
2017-10-12T08:46:50.941Z,1.7
2017-10-12T08:47:53.327Z,1.7
2017-10-12T08:48:55.711Z,1.6
2017-10-12T08:49:58.092Z,1.7
2017-10-12T08:51:00.472Z,1.7
2017-10-12T08:52:02.852Z,1.7
2017-10-12T08:53:05.229Z,1.7
2017-10-12T08:54:07.984Z,1.7
2017-10-12T08:55:10.713Z,1.7
2017-10-12T08:56:13.457Z,1.8
2017-10-12T08:57:15.843Z,1.7
2017-10-12T08:58:18.218Z,1.8
2017-10-12T08:59:20.601Z,1.8
2017-10-12T09:00:22.989Z,1.8
2017-10-12T09:01:25.376Z,1.8
2017-10-12T09:02:27.748Z,1.9
2017-10-12T09:03:30.136Z,1.9
2017-10-12T09:04:32.524Z,1.9
2017-10-12T09:05:34.898Z,1.9
2017-10-12T09:06:37.282Z,1.9
2017-10-12T09:07:39.660Z,1.9
2017-10-12T09:08:42.046Z,2
2017-10-12T09:09:44.429Z,1.9
2017-10-12T09:10:46.807Z,2
2017-10-12T09:11:49.186Z,2
2017-10-12T09:12:51.917Z,2
2017-10-12T09:13:54.308Z,2
2017-10-12T09:14:56.688Z,1.9
2017-10-12T09:15:59.071Z,2
2017-10-12T09:17:01.453Z,2
2017-10-12T09:18:03.834Z,2
2017-10-12T09:19:06.569Z,2.1
2017-10-12T09:20:08.956Z,2
2017-10-12T09:21:11.334Z,2
2017-10-12T09:22:13.723Z,2
2017-10-12T09:23:16.453Z,2
2017-10-12T09:24:18.834Z,2.1
2017-10-12T09:25:21.218Z,2.1
2017-10-12T09:26:23.605Z,2.1
2017-10-12T09:27:25.978Z,2
2017-10-12T09:28:28.368Z,2
2017-10-12T09:29:30.745Z,2.1
2017-10-12T09:30:33.488Z,2.1
2017-10-12T09:31:35.872Z,2.2
2017-10-12T09:32:38.613Z,2.1
2017-10-12T09:33:40.991Z,2.1
2017-10-12T09:34:43.374Z,2.2
2017-10-12T09:35:45.758Z,2.2
2017-10-12T09:36:48.145Z,2.2
2017-10-12T09:37:50.520Z,2.3
2017-10-12T09:38:52.921Z,2.2
2017-10-12T09:39:55.298Z,2.3
2017-10-12T09:40:57.690Z,2.2
2017-10-12T09:42:00.073Z,2.3
2017-10-12T09:43:02.458Z,2.3
2017-10-12T09:44:04.841Z,2.2
2017-10-12T09:45:07.230Z,2.2
2017-10-12T09:46:09.608Z,2.2
2017-10-12T09:47:11.995Z,2.3
2017-10-12T09:48:14.373Z,2.2
2017-10-12T09:49:16.752Z,2.2
2017-10-12T09:50:19.488Z,2.2
2017-10-12T09:51:21.869Z,2.2
2017-10-12T09:52:24.597Z,2.2
2017-10-12T09:53:27.002Z,2.2
2017-10-12T09:54:29.364Z,2.2
2017-10-12T09:55:31.757Z,2.2
2017-10-12T09:56:34.145Z,2.1
2017-10-12T09:57:36.531Z,2.1
2017-10-12T09:58:38.910Z,2.2
2017-10-12T09:59:41.292Z,2.1
2017-10-12T10:00:43.683Z,2.1
2017-10-12T10:01:46.072Z,2.1
2017-10-12T10:02:48.449Z,2.1
2017-10-12T10:03:50.831Z,2.1
2017-10-12T10:04:53.218Z,2.1
2017-10-12T10:05:55.946Z,2.1
2017-10-12T10:06:58.335Z,2.1
2017-10-12T10:08:00.712Z,2.1
2017-10-12T10:09:03.103Z,2.1
2017-10-12T10:10:05.487Z,2.1
2017-10-12T10:11:08.206Z,2
2017-10-12T10:12:10.584Z,2.1
2017-10-12T10:13:12.968Z,2.1
2017-10-12T10:14:15.344Z,2.1
2017-10-12T10:15:17.731Z,2.1
2017-10-12T10:16:20.114Z,2.2
2017-10-12T10:17:22.848Z,2.1
2017-10-12T10:18:25.227Z,2.1
2017-10-12T10:19:27.614Z,2.2
2017-10-12T10:20:29.993Z,2.2
2017-10-12T10:21:32.383Z,2.2
2017-10-12T10:22:34.773Z,2.2
2017-10-12T10:23:37.150Z,2.1
2017-10-12T10:24:39.535Z,2.2
2017-10-12T10:25:41.917Z,2.1
2017-10-12T10:26:44.299Z,2.2
2017-10-12T10:27:46.693Z,2.1
2017-10-12T10:28:49.072Z,2.1
2017-10-12T10:29:51.450Z,2.1
2017-10-12T10:30:53.830Z,2.1
2017-10-12T10:31:56.214Z,2
2017-10-12T10:32:58.956Z,2.1
2017-10-12T10:34:01.343Z,2.1
2017-10-12T10:35:04.102Z,2.2
2017-10-12T10:36:06.484Z,2.1
2017-10-12T10:37:08.865Z,2.2
2017-10-12T10:38:11.246Z,2.2
2017-10-12T10:39:13.627Z,2.2
2017-10-12T10:40:16.377Z,2.2
2017-10-12T10:41:18.762Z,2.2
2017-10-12T10:42:21.134Z,2.2
2017-10-12T10:43:23.864Z,2.2
2017-10-12T10:44:26.602Z,2.2
2017-10-12T10:45:28.978Z,2.2
2017-10-12T10:46:31.365Z,2.2
2017-10-12T10:47:33.744Z,2.2
2017-10-12T10:48:36.126Z,2.2
2017-10-12T10:49:38.514Z,2.2
2017-10-12T10:50:40.903Z,2.3
2017-10-12T10:51:43.280Z,2.2
2017-10-12T10:52:45.670Z,2.3
2017-10-12T10:53:48.055Z,2.3
2017-10-12T10:54:50.439Z,2.3
2017-10-12T10:55:52.823Z,2.2
2017-10-12T10:56:55.229Z,2.2
2017-10-12T10:57:57.584Z,2.2
2017-10-12T10:59:00.321Z,2.2
2017-10-12T11:00:02.712Z,2.2
2017-10-12T11:01:05.452Z,2.1
2017-10-12T11:02:08.201Z,2.1
2017-10-12T11:03:10.585Z,2.1
2017-10-12T11:04:12.971Z,2.1
2017-10-12T11:05:15.356Z,2.1
2017-10-12T11:06:18.083Z,2
2017-10-12T11:07:20.473Z,2
2017-10-12T11:08:22.845Z,2
2017-10-12T11:09:25.229Z,2
2017-10-12T11:10:27.610Z,2
2017-10-12T11:11:29.991Z,1.9
2017-10-12T11:12:32.374Z,1.9
2017-10-12T11:13:35.120Z,1.9
2017-10-12T11:14:37.497Z,1.9
2017-10-12T11:15:39.882Z,1.9
2017-10-12T11:16:42.265Z,1.9
2017-10-12T11:17:44.639Z,1.9
2017-10-12T11:18:47.041Z,1.9
2017-10-12T11:19:49.416Z,1.9
2017-10-12T11:20:51.797Z,1.9
2017-10-12T11:21:54.174Z,1.9
2017-10-12T11:22:56.550Z,1.9
2017-10-12T11:23:58.926Z,1.9
2017-10-12T11:25:01.316Z,1.9
2017-10-12T11:26:03.693Z,1.9
2017-10-12T11:27:06.077Z,1.9
2017-10-12T11:28:08.461Z,1.8
2017-10-12T11:29:10.843Z,1.9
2017-10-12T11:30:13.218Z,1.8
2017-10-12T11:31:15.601Z,1.9
2017-10-12T11:32:17.991Z,1.8
2017-10-12T11:33:20.372Z,1.9
2017-10-12T11:34:22.753Z,1.8
2017-10-12T11:35:25.132Z,1.8
2017-10-12T11:36:27.514Z,1.9
2017-10-12T11:37:30.257Z,1.8
2017-10-12T11:38:32.639Z,1.8
2017-10-12T11:39:35.008Z,1.8
2017-10-12T11:40:37.386Z,1.8
2017-10-12T11:41:40.117Z,1.8
2017-10-12T11:42:42.491Z,1.7
2017-10-12T11:43:44.870Z,1.7
2017-10-12T11:44:47.249Z,1.7
2017-10-12T11:45:49.628Z,1.7
2017-10-12T11:46:52.011Z,1.7
2017-10-12T11:47:54.394Z,1.7
2017-10-12T11:48:56.768Z,1.7
2017-10-12T11:49:59.146Z,1.7
2017-10-12T11:51:01.880Z,1.7
2017-10-12T11:52:04.255Z,1.7
2017-10-12T11:53:06.642Z,1.7
2017-10-12T11:54:09.018Z,1.8
2017-10-12T11:55:11.400Z,1.7
2017-10-12T11:56:13.787Z,1.7
2017-10-12T11:57:16.174Z,1.8
2017-10-12T11:58:18.559Z,1.8
2017-10-12T11:59:20.940Z,1.7
2017-10-12T12:00:23.324Z,1.8
2017-10-12T12:01:25.706Z,1.8
2017-10-12T12:02:28.081Z,1.7
2017-10-12T12:03:30.469Z,1.7
2017-10-12T12:04:32.848Z,1.8
2017-10-12T12:05:35.217Z,1.8
2017-10-12T12:06:37.600Z,1.8
2017-10-12T12:07:39.983Z,1.7
2017-10-12T12:08:42.368Z,1.7
2017-10-12T12:09:44.748Z,1.7
2017-10-12T12:10:47.478Z,1.8
2017-10-12T12:11:49.850Z,1.7
2017-10-12T12:12:52.241Z,1.7
2017-10-12T12:13:54.616Z,1.7
2017-10-12T12:14:57.002Z,1.7
2017-10-12T12:15:59.394Z,1.7
2017-10-12T12:17:01.756Z,1.7
2017-10-12T12:18:04.142Z,1.7
2017-10-12T12:19:06.515Z,1.7
2017-10-12T12:20:08.897Z,1.7
2017-10-12T12:21:11.273Z,1.7
2017-10-12T12:22:14.355Z,1.7
2017-10-12T12:23:16.731Z,1.7
2017-10-12T12:24:19.124Z,1.7
2017-10-12T12:25:21.508Z,1.7
2017-10-12T12:26:23.883Z,1.7
2017-10-12T12:27:26.267Z,1.7
2017-10-12T12:28:28.652Z,1.6
2017-10-12T12:29:31.032Z,1.7
2017-10-12T12:30:33.420Z,1.7
2017-10-12T12:31:36.141Z,1.7
2017-10-12T12:32:38.524Z,1.7
2017-10-12T12:33:40.896Z,1.7
2017-10-12T12:34:43.276Z,1.7
2017-10-12T12:35:45.658Z,1.7
2017-10-12T12:36:48.039Z,1.7
2017-10-12T12:37:50.422Z,1.7
2017-10-12T12:38:52.802Z,1.7
2017-10-12T12:39:55.183Z,1.7
2017-10-12T12:40:58.338Z,1.8
2017-10-12T12:42:00.717Z,1.8
2017-10-12T12:43:03.099Z,1.8
2017-10-12T12:44:05.481Z,1.8
2017-10-12T12:45:07.861Z,1.8
2017-10-12T12:46:10.246Z,1.8
2017-10-12T12:47:12.999Z,1.8
2017-10-12T12:48:15.708Z,1.8
2017-10-12T12:49:18.090Z,1.9
2017-10-12T12:50:20.486Z,1.9
2017-10-12T12:51:23.212Z,1.8
2017-10-12T12:52:25.605Z,1.9
2017-10-12T12:53:27.982Z,1.8
2017-10-12T12:54:30.360Z,1.9
2017-10-12T12:55:32.754Z,1.9
2017-10-12T12:56:35.126Z,1.9
2017-10-12T12:57:37.500Z,1.9
2017-10-12T12:58:39.888Z,1.9
2017-10-12T12:59:42.266Z,2
2017-10-12T13:00:44.648Z,2
2017-10-12T13:01:47.030Z,1.9
2017-10-12T13:02:49.772Z,2
2017-10-12T13:03:52.152Z,1.9
2017-10-12T13:04:54.543Z,2
2017-10-12T13:05:56.917Z,2
2017-10-12T13:06:59.307Z,1.9
2017-10-12T13:08:01.682Z,1.9
2017-10-12T13:09:04.061Z,1.9
2017-10-12T13:10:06.803Z,2
2017-10-12T13:11:09.185Z,2
2017-10-12T13:12:11.928Z,1.9
2017-10-12T13:13:14.320Z,2
2017-10-12T13:14:17.041Z,1.9
2017-10-12T13:15:19.425Z,1.9
2017-10-12T13:16:21.805Z,1.9
2017-10-12T13:17:24.183Z,1.9
2017-10-12T13:18:26.562Z,1.9
2017-10-12T13:19:28.950Z,1.9
2017-10-12T13:20:31.331Z,1.9
2017-10-12T13:21:33.724Z,1.9
2017-10-12T13:22:36.105Z,1.9
2017-10-12T13:23:38.485Z,1.9
2017-10-12T13:24:40.873Z,1.9
2017-10-12T13:25:43.604Z,1.9
2017-10-12T13:26:45.987Z,1.9
2017-10-12T13:28:07.637Z,1.9
2017-10-12T13:29:10.071Z,1.9
2017-10-12T13:30:12.511Z,1.9
2017-10-12T13:31:15.304Z,1.9
2017-10-12T13:32:17.738Z,1.9
2017-10-12T13:33:20.171Z,1.9
2017-10-12T13:34:22.614Z,1.9
2017-10-12T13:35:25.051Z,1.9
2017-10-12T13:36:27.494Z,1.9
2017-10-12T13:37:29.942Z,1.9
2017-10-12T13:38:32.727Z,1.9
2017-10-12T13:39:35.178Z,1.9
2017-10-12T13:40:37.985Z,1.9
2017-10-12T13:41:40.424Z,1.9
2017-10-12T13:42:42.858Z,1.9
2017-10-12T13:43:45.295Z,1.9
2017-10-12T13:44:47.728Z,1.8
2017-10-12T13:45:50.179Z,1.9
2017-10-12T13:46:52.618Z,1.8
2017-10-12T13:47:55.766Z,1.8
2017-10-12T13:48:58.202Z,1.9
2017-10-12T13:50:00.639Z,1.8
2017-10-12T13:51:03.075Z,1.8
2017-10-12T13:52:05.510Z,1.8
2017-10-12T13:53:07.939Z,1.8
2017-10-12T13:54:10.371Z,1.8
2017-10-12T13:55:12.800Z,1.8
2017-10-12T13:56:15.598Z,1.8
2017-10-12T13:57:18.035Z,1.8
2017-10-12T13:58:20.484Z,1.9
2017-10-12T13:59:22.927Z,1.8
2017-10-12T14:00:25.722Z,1.9
2017-10-12T14:01:28.159Z,1.9
2017-10-12T14:02:30.964Z,1.9
2017-10-12T14:03:33.403Z,1.9
2017-10-12T14:04:35.843Z,2
2017-10-12T14:05:38.269Z,2
2017-10-12T14:06:40.708Z,2
2017-10-12T14:07:43.143Z,2
2017-10-12T14:08:45.584Z,2.1
2017-10-12T14:09:48.010Z,2.2
2017-10-12T14:10:50.798Z,2.3
2017-10-12T14:11:53.605Z,2.3
2017-10-12T14:12:56.030Z,2.2
2017-10-12T14:13:58.490Z,2.2
2017-10-12T14:15:00.923Z,2.2
2017-10-12T14:16:03.386Z,2.2
2017-10-12T14:17:05.819Z,2.2
2017-10-12T14:18:08.264Z,2.2
2017-10-12T14:19:11.051Z,2.2
2017-10-12T14:20:13.489Z,2.1
2017-10-12T14:21:15.911Z,2.1
2017-10-12T14:22:18.346Z,2.1